Time;durP1;ratioP1;P1;durP2;ratioP2;P2;SDS_P1;SDS_P2;PMS_P1;PMS_P2;Temp;Humidity;BMP_temperature;BMP_pressure;BME280_temperature;BME280_humidity;BME280_pressure;Samples;Min_cycle;Max_cycle;Signal;HPM_P1;HPM_P2
2024/04/21 00:02:18;;;;;;;17.20;13.48;;;;;;;7.52;100.00;92367.91;6319371;22;20477;-72
2024/04/21 00:04:43;;;;;;;16.42;14.27;;;;;;;7.26;100.00;92331.38;6318240;22;20010;-71
2024/04/21 00:07:08;;;;;;;15.87;12.47;;;;;;;7.06;100.00;92301.72;6319007;22;19992;-72
2024/04/21 00:09:34;;;;;;;13.95;11.88;;;;;;;7.21;100.00;92333.78;6319075;22;20240;-72
2024/04/21 00:11:59;;;;;;;13.40;11.73;;;;;;;7.19;100.00;92323.78;6319107;22;19992;-72
2024/04/21 00:14:25;;;;;;;13.43;11.45;;;;;;;7.32;100.00;92334.88;6318449;22;20075;-72
2024/04/21 00:16:51;;;;;;;15.00;11.45;;;;;;;7.42;100.00;92347.97;6319246;22;20301;-72
2024/04/21 00:19:16;;;;;;;14.95;10.40;;;;;;;7.43;100.00;92338.50;6319768;22;19992;-71
2024/04/21 00:21:42;;;;;;;13.55;10.55;;;;;;;7.54;100.00;92335.25;6321009;22;19995;-72
2024/04/21 00:24:07;;;;;;;13.88;10.25;;;;;;;7.77;100.00;92366.28;6320722;22;20008;-72
2024/04/21 00:26:33;;;;;;;12.43;10.10;;;;;;;7.87;100.00;92371.69;6320958;22;20002;-72
2024/04/21 00:28:58;;;;;;;12.55;9.68;;;;;;;7.72;100.00;92351.56;6320870;22;20531;-72
2024/04/21 00:31:23;;;;;;;13.32;10.32;;;;;;;7.67;100.00;92339.44;6320282;22;19992;-71
2024/04/21 00:33:49;;;;;;;12.15;9.02;;;;;;;7.91;100.00;92385.59;6320393;22;20000;-72
2024/04/21 00:36:14;;;;;;;14.68;10.63;;;;;;;7.84;100.00;92362.66;6278295;22;19996;-72
2024/04/21 00:38:40;;;;;;;11.63;8.25;;;;;;;7.85;100.00;92364.22;6320608;22;20012;-72
2024/04/21 00:41:06;;;;;;;11.18;8.77;;;;;;;7.63;100.00;92343.41;6321092;22;20362;-72
2024/04/21 00:43:31;;;;;;;9.05;7.90;;;;;;;7.86;100.00;92378.56;6320643;22;20804;-72
2024/04/21 00:45:57;;;;;;;10.68;7.85;;;;;;;7.81;100.00;92357.19;6319806;22;19992;-72
2024/04/21 00:48:23;;;;;;;9.80;8.00;;;;;;;7.67;100.00;92334.31;6320135;22;20298;-71
2024/04/21 00:50:51;;;;;;;10.25;8.15;;;;;;;7.66;100.00;92329.41;6320555;22;19999;-71
2024/04/21 00:53:19;;;;;;;8.20;7.35;;;;;;;7.65;100.00;92325.31;6310676;22;20309;-71
2024/04/21 00:55:45;;;;;;;9.73;7.55;;;;;;;7.67;100.00;92325.88;6320629;22;20465;-71
2024/04/21 00:58:12;;;;;;;9.23;7.65;;;;;;;8.02;100.00;92384.88;6320480;22;20091;-71
2024/04/21 01:00:38;;;;;;;9.32;8.23;;;;;;;7.95;100.00;92366.28;6317049;22;19996;-71
2024/04/21 01:03:04;;;;;;;10.02;7.15;;;;;;;7.98;100.00;92363.31;6319734;22;19994;-71
2024/04/21 01:05:30;;;;;;;7.85;6.90;;;;;;;7.82;100.00;92336.53;6318346;22;20032;-71
2024/04/21 01:07:56;;;;;;;8.18;6.63;;;;;;;8.05;100.00;92370.88;6313202;22;20759;-71
2024/04/21 01:10:21;;;;;;;8.10;6.38;;;;;;;7.85;100.00;92328.44;6315206;22;20044;-71
2024/04/21 01:12:46;;;;;;;7.30;5.60;;;;;;;7.96;100.00;92347.38;6314351;22;20324;-72
2024/04/21 01:15:12;;;;;;;7.47;6.25;;;;;;;7.79;100.00;92325.94;6313167;22;20006;-72
2024/04/21 01:17:37;;;;;;;7.38;6.20;;;;;;;8.04;100.00;92368.56;6314410;22;20383;-72
2024/04/21 01:20:03;;;;;;;9.65;6.38;;;;;;;7.83;100.00;92338.06;6313432;22;20020;-72
2024/04/21 01:22:29;;;;;;;8.00;6.60;;;;;;;7.69;100.00;92327.22;6314249;22;20135;-72
2024/04/21 01:24:55;;;;;;;7.95;6.95;;;;;;;7.79;100.00;92333.63;6314184;22;20293;-72
2024/04/21 01:27:21;;;;;;;9.88;7.68;;;;;;;7.53;100.00;92304.78;6312525;22;20032;-72
2024/04/21 01:29:49;;;;;;;10.82;8.38;;;;;;;7.76;100.00;92355.28;6314225;22;20008;-72
2024/04/21 01:32:21;;;;;;;10.90;7.68;;;;;;;7.47;100.00;92339.66;6312699;22;19995;-71
2024/04/21 01:34:48;;;;;;;9.55;7.82;;;;;;;7.43;100.00;92338.50;6313461;22;20006;-72
2024/04/21 01:37:15;;;;;;;9.95;7.45;;;;;;;6.60;100.00;92209.22;6314577;22;20331;-72
2024/04/21 01:39:41;;;;;;;9.13;7.43;;;;;;;7.27;100.00;92316.84;6313841;22;20011;-71
2024/04/21 01:42:07;;;;;;;10.35;8.48;;;;;;;7.37;100.00;92314.59;6312857;22;20000;-72
2024/04/21 01:44:32;;;;;;;9.63;8.32;;;;;;;7.31;100.00;92300.88;6314565;22;20000;-72
2024/04/21 01:46:58;;;;;;;11.18;8.75;;;;;;;7.39;100.00;92306.69;6312787;22;20007;-72
2024/04/21 01:49:23;;;;;;;11.95;9.05;;;;;;;7.50;100.00;92313.66;6313790;22;19996;-72
2024/04/21 01:51:49;;;;;;;11.35;9.00;;;;;;;7.53;100.00;92315.78;6314265;22;20003;-72
2024/04/21 01:54:14;;;;;;;12.15;9.45;;;;;;;7.69;100.00;92336.69;6312508;22;20028;-72
2024/04/21 01:56:40;;;;;;;11.55;9.20;;;;;;;7.67;100.00;92331.78;6314588;22;20007;-73
2024/04/21 01:59:05;;;;;;;12.37;10.17;;;;;;;7.40;100.00;92292.94;6313754;22;20015;-72
2024/04/21 02:01:31;;;;;;;11.70;10.43;;;;;;;7.58;100.00;92326.16;6311901;22;20741;-72
2024/04/21 02:03:56;;;;;;;11.38;9.88;;;;;;;7.11;100.00;92255.09;6314448;22;19999;-72
2024/04/21 02:06:22;;;;;;;13.63;10.80;;;;;;;7.55;100.00;92325.81;6313174;22;20493;-72
2024/04/21 02:08:47;;;;;;;12.90;9.98;;;;;;;7.27;100.00;92299.72;6313339;22;20010;-72
2024/04/21 02:11:12;;;;;;;12.63;9.02;;;;;;;7.55;100.00;92334.25;6314256;22;20442;-72
2024/04/21 02:13:38;;;;;;;11.07;8.05;;;;;;;7.27;100.00;92292.06;6312802;22;20013;-72
2024/04/21 02:16:04;;;;;;;10.38;7.63;;;;;;;7.57;100.00;92336.59;6313737;22;19996;-72
2024/04/21 02:18:30;;;;;;;8.88;7.95;;;;;;;7.21;100.00;92287.81;6275352;22;20000;-72
2024/04/21 02:20:55;;;;;;;9.27;7.45;;;;;;;7.48;100.00;92336.88;6319655;22;20282;-72
2024/04/21 02:23:21;;;;;;;13.25;9.23;;;;;;;7.01;100.00;92267.56;6320136;22;19999;-72
2024/04/21 02:25:56;;;;;;;9.25;8.23;;;;;;;7.39;100.00;92325.38;6319028;22;19996;-72
2024/04/21 02:28:22;;;;;;;13.70;12.30;;;;;;;7.07;100.00;92295.59;6319560;22;20004;-72
2024/04/21 02:30:47;;;;;;;14.10;9.68;;;;;;;7.06;100.00;92304.25;6276687;22;20322;-72
2024/04/21 02:33:13;;;;;;;11.30;9.30;;;;;;;7.03;100.00;92309.78;6319983;22;20000;-72
2024/04/21 02:35:38;;;;;;;11.57;9.17;;;;;;;7.15;100.00;92334.63;6319633;22;20000;-72
2024/04/21 02:38:04;;;;;;;13.07;8.15;;;;;;;7.09;100.00;92331.16;6320094;22;20217;-72
2024/04/21 02:40:29;;;;;;;11.02;8.15;;;;;;;6.81;100.00;92294.81;6319476;22;20389;-71
2024/04/21 02:42:54;;;;;;;10.63;8.52;;;;;;;6.78;100.00;92307.22;6319480;22;19999;-71
2024/04/21 02:45:20;;;;;;;11.75;8.48;;;;;;;7.02;100.00;92333.75;6319687;22;20417;-71
2024/04/21 02:47:45;;;;;;;8.98;7.60;;;;;;;6.71;100.00;92296.31;6320054;22;19996;-72
2024/04/21 02:50:11;;;;;;;11.00;8.45;;;;;;;6.83;100.00;92332.91;6319732;22;20004;-72
2024/04/21 02:52:36;;;;;;;9.80;7.15;;;;;;;6.64;100.00;92316.75;6319192;22;20298;-72
2024/04/21 02:55:02;;;;;;;11.00;7.13;;;;;;;6.67;100.00;92336.78;6320100;22;20080;-72
2024/04/21 02:57:27;;;;;;;7.90;6.88;;;;;;;6.38;100.00;92296.31;6319498;22;19991;-71
2024/04/21 02:59:55;;;;;;;9.43;7.35;;;;;;;6.64;100.00;92355.03;6318129;22;20707;-72
2024/04/21 03:02:21;;;;;;;9.65;7.45;;;;;;;6.44;100.00;92334.75;6319670;22;20000;-72
2024/04/21 03:04:46;;;;;;;10.60;7.32;;;;;;;6.31;100.00;92312.66;6319875;22;20007;-72
2024/04/21 03:07:12;;;;;;;9.00;7.30;;;;;;;6.49;100.00;92330.56;6319893;22;20043;-72
2024/04/21 03:09:41;;;;;;;10.43;7.07;;;;;;;6.61;100.00;92352.91;6318511;22;20003;-72
2024/04/21 03:12:07;;;;;;;8.32;7.05;;;;;;;6.53;100.00;92336.06;6318963;22;20074;-72
2024/04/21 03:14:32;;;;;;;9.32;7.85;;;;;;;6.11;100.00;92282.97;6319281;22;20557;-72
2024/04/21 03:16:58;;;;;;;8.32;7.43;;;;;;;6.52;100.00;92349.81;6319782;22;20028;-72
2024/04/21 03:19:23;;;;;;;8.75;7.38;;;;;;;6.26;100.00;92318.38;6319785;22;20014;-72
2024/04/21 03:21:49;;;;;;;9.73;7.25;;;;;;;5.51;100.00;92207.56;6319379;22;20007;-71
2024/04/21 03:24:14;;;;;;;8.10;7.07;;;;;;;6.30;100.00;92344.25;6319412;22;20426;-71
2024/04/21 03:26:40;;;;;;;7.43;6.25;;;;;;;6.12;100.00;92326.06;6319568;22;20003;-71
2024/04/21 03:29:05;;;;;;;8.23;6.40;;;;;;;6.10;100.00;92330.59;6318543;22;20011;-71
2024/04/21 03:31:31;;;;;;;7.95;6.47;;;;;;;5.79;100.00;92293.84;6318786;22;20036;-71
2024/04/21 03:33:56;;;;;;;7.57;6.32;;;;;;;5.74;100.00;92284.25;6319553;22;20425;-72
2024/04/21 03:36:21;;;;;;;8.68;7.00;;;;;;;6.04;100.00;92333.19;6319455;22;20023;-72
2024/04/21 03:38:47;;;;;;;8.07;6.32;;;;;;;6.05;100.00;92340.63;6319268;22;20044;-72
2024/04/21 03:41:12;;;;;;;9.48;7.00;;;;;;;5.97;100.00;92339.06;6319938;22;20502;-72
2024/04/21 03:43:39;;;;;;;9.27;6.32;;;;;;;5.70;100.00;92297.63;6318593;22;20313;-72
2024/04/21 03:46:05;;;;;;;9.18;7.10;;;;;;;5.81;100.00;92307.19;6319217;22;20004;-72
2024/04/21 03:48:31;;;;;;;9.93;7.82;;;;;;;5.85;100.00;92322.84;6319665;22;20305;-72
2024/04/21 03:50:56;;;;;;;10.70;7.70;;;;;;;5.91;100.00;92316.13;6318571;22;20006;-72
2024/04/21 03:53:22;;;;;;;10.38;7.47;;;;;;;5.79;100.00;92298.19;6319918;22;20011;-72
2024/04/21 03:55:48;;;;;;;10.48;7.70;;;;;;;5.99;100.00;92323.56;6320060;22;20000;-72
2024/04/21 03:58:14;;;;;;;10.00;7.60;;;;;;;6.07;100.00;92330.25;6320010;22;20007;-72
2024/04/21 04:00:39;;;;;;;8.98;7.38;;;;;;;6.06;100.00;92338.88;6319084;22;19992;-72
2024/04/21 04:03:05;;;;;;;8.20;7.10;;;;;;;6.12;100.00;92343.94;6320062;22;20011;-72
2024/04/21 04:05:30;;;;;;;8.82;7.20;;;;;;;6.21;100.00;92354.66;6315518;22;20405;-72
2024/04/21 04:07:56;;;;;;;8.95;7.22;;;;;;;6.22;100.00;92343.50;6317390;22;20793;-72
2024/04/21 04:10:21;;;;;;;11.93;7.30;;;;;;;6.32;100.00;92350.72;6315971;22;20003;-72
2024/04/21 04:12:47;;;;;;;10.10;6.90;;;;;;;6.44;100.00;92366.16;6315425;22;20000;-72
2024/04/21 04:15:12;;;;;;;9.55;7.10;;;;;;;6.13;100.00;92306.47;6315295;22;20003;-72
2024/04/21 04:17:38;;;;;;;9.45;6.97;;;;;;;6.26;100.00;92313.28;6319120;22;20011;-72
2024/04/21 04:20:06;;;;;;;8.68;7.40;;;;;;;6.74;100.00;92359.69;6320032;22;20306;-72
2024/04/21 04:22:33;;;;;;;7.60;6.35;;;;;;;6.65;100.00;92348.94;6320052;22;20787;-72
2024/04/21 04:24:58;;;;;;;;;;;;;;;6.61;100.00;92356.22;6316814;22;20055;-72
2024/04/21 04:27:24;;;;;;;11.15;8.68;;;;;;;6.12;100.00;92297.25;6319192;22;20230;-72
2024/04/21 04:29:52;;;;;;;12.65;9.95;;;;;;;6.41;100.00;92335.94;6276067;22;20072;-72
2024/04/21 04:32:18;;;;;;;16.45;10.05;;;;;;;6.60;100.00;92359.78;6276604;22;20007;-72
2024/04/21 04:34:43;;;;;;;18.73;10.95;;;;;;;6.51;100.00;92343.13;6319903;22;20031;-72
2024/04/21 04:37:09;;;;;;;14.00;10.90;;;;;;;6.56;100.00;92345.84;6276978;22;20007;-72
2024/04/21 04:39:35;;;;;;;12.32;10.32;;;;;;;5.89;100.00;92238.13;6318752;22;20720;-72
2024/04/21 04:42:00;;;;;;;12.77;10.55;;;;;;;6.47;100.00;92319.81;6319256;22;20003;-71
2024/04/21 04:44:26;;;;;;;12.13;9.07;;;;;;;6.77;100.00;92361.81;6276947;22;20283;-72
2024/04/21 04:46:51;;;;;;;9.95;8.13;;;;;;;6.46;100.00;92318.25;6318399;22;20028;-72
2024/04/21 04:49:17;;;;;;;10.02;8.07;;;;;;;6.61;100.00;92330.72;6319169;22;20044;-72
2024/04/21 04:51:42;;;;;;;12.73;9.23;;;;;;;6.91;100.00;92365.84;6318547;22;20318;-72
2024/04/21 04:54:08;;;;;;;15.65;9.10;;;;;;;7.09;100.00;92374.56;6318924;22;20014;-72
2024/04/21 04:56:33;;;;;;;11.75;8.38;;;;;;;6.95;100.00;92338.13;6319408;22;20004;-72
2024/04/21 04:58:59;;;;;;;15.23;8.40;;;;;;;6.89;100.00;92313.44;6318926;22;20011;-72
2024/04/21 05:01:27;;;;;;;11.98;8.70;;;;;;;7.00;100.00;92322.97;6317839;22;20571;-72
2024/04/21 05:03:53;;;;;;;13.55;9.73;;;;;;;7.22;100.00;92346.34;6318786;22;20000;-72
2024/04/21 05:06:18;;;;;;;10.77;8.30;;;;;;;7.31;100.00;92339.19;6319155;22;20004;-72
2024/04/21 05:08:44;;;;;;;10.20;7.80;;;;;;;7.45;100.00;92367.19;6320019;22;20004;-72
2024/04/21 05:11:09;;;;;;;8.98;7.45;;;;;;;7.45;100.00;92367.19;6277282;22;20000;-72
2024/04/21 05:13:35;;;;;;;8.15;6.88;;;;;;;7.47;100.00;92355.78;6319688;22;20000;-72
2024/04/21 05:16:01;;;;;;;11.35;7.97;;;;;;;7.73;100.00;92386.38;6319484;22;20436;-72
2024/04/21 05:18:26;;;;;;;9.68;8.48;;;;;;;7.56;100.00;92337.59;6319823;22;20007;-72
2024/04/21 05:20:51;;;;;;;13.15;9.65;;;;;;;7.88;100.00;92374.00;6318957;22;20000;-72
2024/04/21 05:23:17;;;;;;;12.25;8.75;;;;;;;8.02;100.00;92373.88;6317569;22;20015;-72
2024/04/21 05:25:42;;;;;;;9.20;8.15;;;;;;;8.13;100.00;92370.59;6316415;22;20010;-72
2024/04/21 05:28:08;;;;;;;10.40;7.82;;;;;;;8.38;100.00;92389.41;6313726;22;20000;-72
2024/04/21 05:30:37;;;;;;;9.00;6.90;;;;;;;8.28;100.00;92341.28;6314844;22;20014;-72
2024/04/21 05:33:02;;;;;;;9.95;7.15;;;;;;;8.60;100.00;92369.25;6316764;22;20081;-72
2024/04/21 05:35:28;;;;;;;9.07;6.97;;;;;;;8.65;100.00;92351.47;6318044;22;19996;-72
2024/04/21 05:37:54;;;;;;;8.40;6.50;;;;;;;9.05;100.00;92383.41;6318194;22;20413;-72
2024/04/21 05:40:19;;;;;;;10.88;7.25;;;;;;;9.03;100.00;92382.06;6319068;22;20566;-72
2024/04/21 05:42:44;;;;;;;9.13;7.15;;;;;;;9.06;100.00;92366.22;6318383;22;20314;-72
2024/04/21 05:45:10;;;;;;;8.82;6.60;;;;;;;9.31;100.00;92390.91;6319442;22;19996;-72
2024/04/21 05:47:35;;;;;;;8.45;6.43;;;;;;;9.38;100.00;92386.44;6319285;22;20008;-72
2024/04/21 05:50:01;;;;;;;7.43;6.45;;;;;;;9.40;100.00;92376.72;6276365;22;20362;-72
2024/04/21 05:52:26;;;;;;;9.05;6.70;;;;;;;9.57;100.00;92389.66;6318089;22;20000;-72
2024/04/21 05:54:52;;;;;;;8.38;6.93;;;;;;;9.70;100.00;92393.00;6318166;22;20103;-72
2024/04/21 05:57:17;;;;;;;7.82;6.60;;;;;;;9.73;100.00;92390.00;6318614;22;20012;-72
2024/04/21 05:59:44;;;;;;;9.33;5.77;;;;;;;9.79;100.00;92378.84;6317447;22;20433;-72
2024/04/21 06:02:10;;;;;;;10.55;6.63;;;;;;;9.47;100.00;92318.47;6315779;22;20216;-72
2024/04/21 06:04:36;;;;;;;7.75;5.95;;;;;;;10.07;100.00;92374.78;6314814;22;20004;-72
2024/04/21 06:07:01;;;;;;;8.50;6.82;;;;;;;10.22;100.00;92370.94;6316147;22;19996;-72
2024/04/21 06:09:27;;;;;;;9.55;6.75;;;;;;;10.23;100.00;92357.13;6316817;22;20011;-72
2024/04/21 06:11:53;;;;;;;8.48;6.18;;;;;;;9.85;100.00;92279.69;6316073;22;20024;-72
2024/04/21 06:14:18;;;;;;;7.93;6.20;;;;;;;10.63;100.00;92364.03;6317966;22;20008;-72
2024/04/21 06:16:44;;;;;;;7.40;6.13;;;;;;;10.89;100.00;92390.16;6318952;22;20015;-72
2024/04/21 06:19:09;;;;;;;7.18;5.90;;;;;;;10.83;96.88;92375.63;6317732;22;20023;-72
2024/04/21 06:21:35;;;;;;;9.35;5.47;;;;;;;10.92;94.76;92384.53;6318424;22;20044;-72
2024/04/21 06:24:00;;;;;;;6.80;4.72;;;;;;;10.90;89.27;92390.91;6319868;22;20003;-72
2024/04/21 06:26:26;;;;;;;5.47;4.82;;;;;;;10.84;91.58;92418.31;6318973;22;20006;-72
2024/04/21 06:28:51;;;;;;;9.77;5.60;;;;;;;10.90;93.49;92401.97;6318525;22;20781;-72
2024/04/21 06:31:17;;;;;;;8.48;6.28;;;;;;;10.82;96.24;92384.34;6318327;22;19999;-72
2024/04/21 06:33:42;;;;;;;12.02;8.02;;;;;;;11.06;95.80;92399.66;6319840;22;20080;-73
2024/04/21 06:36:08;;;;;;;8.40;6.57;;;;;;;11.05;92.88;92380.09;6318264;22;20003;-72
2024/04/21 06:38:33;;;;;;;14.10;7.80;;;;;;;11.17;93.36;92375.69;6318811;22;20003;-72
2024/04/21 06:40:59;;;;;;;10.83;7.30;;;;;;;11.44;92.81;92402.56;6318416;22;20308;-73
2024/04/21 06:43:24;;;;;;;13.77;8.90;;;;;;;11.23;91.75;92351.63;6315078;22;20317;-72
2024/04/21 06:45:49;;;;;;;14.98;8.00;;;;;;;11.46;92.49;92339.59;6314382;22;20007;-72
2024/04/21 06:48:15;;;;;;;12.65;8.88;;;;;;;11.85;93.44;92395.41;6313408;22;20000;-72
2024/04/21 06:50:47;;;;;;;17.95;8.35;;;;;;;11.39;93.89;92397.34;6314036;22;20004;-72
2024/04/21 06:53:13;;;;;;;11.25;7.07;;;;;;;11.57;92.76;92371.34;6313280;22;20012;-72
2024/04/21 06:55:38;;;;;;;7.85;5.78;;;;;;;11.91;88.58;92391.13;6315483;22;20007;-72
2024/04/21 06:58:04;;;;;;;6.35;4.50;;;;;;;11.83;83.34;92366.56;6315684;22;20043;-73
2024/04/21 07:00:29;;;;;;;7.45;5.25;;;;;;;12.13;87.42;92362.06;6317143;22;20000;-72
2024/04/21 07:02:54;;;;;;;5.90;3.83;;;;;;;12.34;84.47;92363.06;6318404;22;19992;-72
2024/04/21 07:05:20;;;;;;;5.10;3.80;;;;;;;12.63;83.03;92383.44;6318870;22;19996;-72
2024/04/21 07:07:45;;;;;;;7.45;4.25;;;;;;;12.93;82.98;92402.81;6317667;22;20298;-72
2024/04/21 07:10:11;;;;;;;5.85;3.50;;;;;;;12.90;82.01;92411.03;6318025;22;20011;-72
2024/04/21 07:12:36;;;;;;;5.40;3.40;;;;;;;12.99;81.50;92408.00;6318224;22;20080;-73
2024/04/21 07:15:03;;;;;;;3.95;3.08;;;;;;;12.77;80.86;92383.09;6318162;22;20007;-73
2024/04/21 07:17:29;;;;;;;5.15;3.10;;;;;;;13.03;79.25;92393.59;6318027;22;20376;-72
2024/04/21 07:19:54;;;;;;;4.05;3.03;;;;;;;12.88;79.67;92350.44;6317156;22;20007;-72
2024/04/21 07:22:19;;;;;;;6.30;3.78;;;;;;;13.02;76.62;92379.97;6318700;22;20004;-72
2024/04/21 07:24:45;;;;;;;9.35;3.72;;;;;;;12.93;76.67;92368.53;6317528;22;20326;-72
2024/04/21 07:27:10;;;;;;;7.97;3.13;;;;;;;12.97;77.93;92374.75;6314095;22;20006;-73
2024/04/21 07:29:36;;;;;;;7.38;3.63;;;;;;;12.94;78.32;92357.19;6316942;22;20000;-73
2024/04/21 07:32:02;;;;;;;4.03;3.35;;;;;;;13.16;78.25;92382.13;6316151;22;20394;-72
2024/04/21 07:34:28;;;;;;;4.53;3.35;;;;;;;13.15;78.92;92359.94;6313512;22;20004;-72
2024/04/21 07:36:53;;;;;;;3.80;2.90;;;;;;;13.37;77.96;92385.63;6315921;22;20011;-72
2024/04/21 07:39:20;;;;;;;3.60;2.80;;;;;;;13.21;75.69;92361.53;6314704;22;20675;-73
2024/04/21 07:41:45;;;;;;;4.85;3.35;;;;;;;13.26;77.68;92381.41;6316742;22;20035;-73
2024/04/21 07:44:10;;;;;;;4.90;3.00;;;;;;;13.45;77.68;92376.66;6317334;22;20004;-73
2024/04/21 07:46:36;;;;;;;4.32;3.00;;;;;;;13.36;76.29;92384.84;6316696;22;20012;-73
2024/04/21 07:49:01;;;;;;;5.53;3.83;;;;;;;13.15;76.60;92381.31;6318253;22;20516;-73
2024/04/21 07:51:27;;;;;;;4.40;3.83;;;;;;;12.88;76.55;92353.81;6318633;22;20007;-72
2024/04/21 07:53:53;;;;;;;4.65;3.53;;;;;;;13.04;77.34;92370.16;6317149;22;20312;-73
2024/04/21 07:56:19;;;;;;;5.40;3.30;;;;;;;13.02;77.40;92361.13;6318221;22;19996;-73
2024/04/21 07:58:44;;;;;;;7.82;3.97;;;;;;;13.05;77.78;92374.28;6318789;22;20000;-73
2024/04/21 08:01:11;;;;;;;8.27;4.03;;;;;;;12.89;78.67;92341.69;6318035;22;20000;-72
2024/04/21 08:03:37;;;;;;;5.45;4.10;;;;;;;12.90;78.44;92345.81;6314638;22;20079;-73
2024/04/21 08:06:03;;;;;;;4.65;3.92;;;;;;;12.95;79.43;92351.78;6315543;22;20007;-73
2024/04/21 08:08:28;;;;;;;6.65;4.63;;;;;;;13.06;79.25;92341.56;6315165;22;20307;-73
2024/04/21 08:10:56;;;;;;;10.70;4.93;;;;;;;13.29;79.05;92358.47;6314707;22;19996;-73
2024/04/21 08:13:22;;;;;;;8.63;5.03;;;;;;;13.46;77.54;92373.03;6315997;22;20014;-73
2024/04/21 08:15:47;;;;;;;6.45;4.70;;;;;;;13.60;76.19;92389.69;6316132;22;20000;-72
2024/04/21 08:18:13;;;;;;;5.82;3.97;;;;;;;13.42;74.82;92369.41;6315916;22;20076;-73
2024/04/21 08:20:38;;;;;;;5.97;3.70;;;;;;;13.38;76.54;92379.44;6317021;22;20011;-72
2024/04/21 08:23:04;;;;;;;4.72;3.72;;;;;;;13.27;76.19;92352.00;6318190;22;20002;-73
2024/04/21 08:25:30;;;;;;;7.07;4.30;;;;;;;13.44;76.32;92381.06;6317355;22;20385;-73
2024/04/21 08:27:55;;;;;;;18.95;6.18;;;;;;;13.39;75.72;92383.59;6316175;22;20035;-73
2024/04/21 08:30:20;;;;;;;13.80;5.45;;;;;;;13.32;76.92;92380.41;6275706;22;20004;-73
2024/04/21 08:32:46;;;;;;;8.40;5.93;;;;;;;13.31;77.72;92389.97;6318149;22;20067;-73
2024/04/21 08:35:12;;;;;;;6.57;4.85;;;;;;;13.26;77.42;92379.63;6317398;22;20014;-74
2024/04/21 08:37:39;;;;;;;7.93;5.07;;;;;;;13.28;76.48;92393.03;6276020;22;20014;-74
2024/04/21 08:40:06;;;;;;;11.82;6.18;;;;;;;13.12;78.06;92352.69;6318784;22;20765;-74
2024/04/21 08:42:35;;;;;;;10.23;5.95;;;;;;;13.15;76.59;92350.38;6319183;22;20085;-74
2024/04/21 08:45:02;;;;;;;10.55;5.47;;;;;;;13.31;75.69;92358.25;6319154;22;20000;-74
2024/04/21 08:47:29;;;;;;;11.52;6.15;;;;;;;13.48;75.39;92379.53;6316939;22;20003;-74
2024/04/21 08:49:56;;;;;;;8.23;4.75;;;;;;;13.54;74.39;92377.78;6315828;22;19999;-74
2024/04/21 08:52:22;;;;;;;8.52;4.55;;;;;;;13.71;74.61;92379.44;6315864;22;20709;-74
2024/04/21 08:54:48;;;;;;;12.98;6.55;;;;;;;13.99;76.49;92378.28;6316085;22;20019;-74
2024/04/21 08:57:16;;;;;;;10.43;4.55;;;;;;;13.70;74.29;92297.88;6316272;22;20000;-74
2024/04/21 08:59:42;;;;;;;6.60;4.45;;;;;;;14.45;73.75;92370.97;6315737;22;20079;-74
2024/04/21 09:02:12;;;;;;;7.88;4.65;;;;;;;14.59;71.78;92351.38;6318704;22;20004;-74
2024/04/21 09:04:42;;;;;;;19.70;7.80;;;;;;;14.74;71.18;92355.78;6319581;22;20121;-74
2024/04/21 09:07:10;;;;;;;8.90;4.80;;;;;;;14.74;69.63;92363.56;6318909;22;20014;-74
2024/04/21 09:09:36;;;;;;;4.72;3.42;;;;;;;14.84;68.42;92386.09;6320523;22;20004;-74
2024/04/21 09:12:02;;;;;;;9.27;4.85;;;;;;;14.56;69.11;92347.50;6317775;22;19992;-74
2024/04/21 09:14:28;;;;;;;17.30;7.22;;;;;;;14.53;69.02;92336.88;6318574;22;20015;-75
2024/04/21 09:16:53;;;;;;;6.78;4.32;;;;;;;14.78;68.91;92371.59;6318430;22;19995;-74
2024/04/21 09:19:19;;;;;;;8.55;4.47;;;;;;;14.94;68.19;92390.47;6319525;22;20051;-74
2024/04/21 09:21:46;;;;;;;;;;;;;;;14.86;68.50;92383.25;6320455;22;20007;-75
2024/04/21 09:24:11;;;;;;;8.18;5.22;;;;;;;14.71;68.76;92371.81;6319304;22;19936;-74
2024/04/21 09:26:37;;;;;;;9.10;5.15;;;;;;;14.56;68.63;92334.56;6319078;22;20346;-74
2024/04/21 09:29:03;;;;;;;7.55;3.95;;;;;;;14.72;69.46;92355.25;6319425;22;20071;-74
2024/04/21 09:31:30;;;;;;;6.82;3.92;;;;;;;14.49;69.51;92317.75;6317360;22;20006;-74
2024/04/21 09:33:55;;;;;;;5.75;3.50;;;;;;;14.72;70.38;92362.25;6317507;22;20406;-74
2024/04/21 09:36:23;;;;;;;5.47;3.15;;;;;;;14.55;69.41;92338.16;6320495;22;19999;-74
2024/04/21 09:38:51;;;;;;;6.22;3.10;;;;;;;14.41;69.00;92324.19;6319931;22;20000;-74
2024/04/21 09:41:17;;;;;;;4.63;3.10;;;;;;;14.37;67.28;92325.72;6318499;22;19992;-75
2024/04/21 09:43:43;;;;;;;5.05;3.13;;;;;;;14.00;68.39;92257.72;6319132;22;20326;-74
2024/04/21 09:46:11;;;;;;;4.32;2.78;;;;;;;14.63;67.99;92341.31;6319347;22;20059;-74
2024/04/21 09:48:37;;;;;;;4.60;2.85;;;;;;;14.69;67.96;92332.53;6319376;22;20313;-74
2024/04/21 09:51:04;;;;;;;5.32;3.80;;;;;;;14.91;66.62;92357.41;6319067;22;19996;-74
2024/04/21 09:53:30;;;;;;;5.38;3.45;;;;;;;14.89;66.12;92355.06;6319716;22;20000;-74
2024/04/21 09:55:56;;;;;;;5.88;4.13;;;;;;;14.77;65.31;92326.84;6318281;22;20136;-74
2024/04/21 09:58:27;;;;;;;8.88;4.05;;;;;;;14.60;63.92;92295.28;6318686;22;19999;-74
2024/04/21 10:00:53;;;;;;;3.90;2.45;;;;;;;14.91;62.23;92359.97;6319037;22;20000;-74
2024/04/21 10:03:19;;;;;;;5.07;3.00;;;;;;;14.76;64.67;92333.06;6277398;22;20011;-74
2024/04/21 10:05:49;;;;;;;4.38;2.65;;;;;;;14.84;65.27;92331.78;6318882;22;20016;-74
2024/04/21 10:08:15;;;;;;;5.28;2.80;;;;;;;14.97;65.22;92330.50;6319250;22;20011;-74
2024/04/21 10:10:43;;;;;;;3.97;2.63;;;;;;;15.16;63.31;92351.47;6319090;22;20386;-73
2024/04/21 10:13:09;;;;;;;3.92;2.90;;;;;;;14.76;64.12;92280.59;6319108;22;20010;-74
2024/04/21 10:15:36;;;;;;;5.18;2.67;;;;;;;15.00;63.74;92311.13;6319657;22;20040;-74
2024/04/21 10:18:02;;;;;;;3.92;2.70;;;;;;;14.97;63.66;92296.88;6277450;22;20344;-74
2024/04/21 10:20:37;;;;;;;;;;;;;;;15.34;64.95;92328.69;6320361;22;19996;-74
2024/04/21 10:23:06;;;;;;;5.68;2.88;;;;;;;15.05;63.58;92301.53;6320030;22;19924;-74
2024/04/21 10:25:33;;;;;;;4.93;3.47;;;;;;;15.18;63.11;92315.75;6277654;22;20470;-74
2024/04/21 10:28:03;;;;;;;11.02;4.47;;;;;;;15.29;63.97;92316.53;6319135;22;20004;-74
2024/04/21 10:30:29;;;;;;;6.72;3.67;;;;;;;15.27;63.17;92310.06;6318607;22;20024;-74
2024/04/21 10:33:02;;;;;;;6.63;3.95;;;;;;;15.06;63.56;92282.41;6318482;22;19996;-74
2024/04/21 10:35:40;;;;;;;5.93;3.33;;;;;;;15.19;65.04;92282.91;6319299;22;19999;-74
2024/04/21 10:38:12;;;;;;;11.48;5.18;;;;;;;15.18;64.25;92266.59;6319794;22;20003;-74
2024/04/21 10:40:40;;;;;;;4.22;3.45;;;;;;;15.17;64.11;92279.78;6318141;22;20075;-74
2024/04/21 10:43:07;;;;;;;3.95;2.90;;;;;;;15.18;64.95;92310.56;6316022;22;20611;-74
2024/04/21 10:45:36;;;;;;;5.93;3.42;;;;;;;14.80;66.32;92284.22;6317900;22;20716;-74
2024/04/21 10:48:02;;;;;;;5.95;3.72;;;;;;;14.71;67.19;92312.34;6317876;22;20417;-74
2024/04/21 10:50:29;;;;;;;6.07;3.60;;;;;;;14.37;70.44;92274.06;6319815;22;20007;-74
2024/04/21 10:52:54;;;;;;;;;;;;;;;14.47;71.60;92317.22;6320563;22;20420;-74
2024/04/21 10:55:20;;;;;;;5.78;3.70;;;;;;;14.09;72.03;92318.16;6320015;22;19931;-74
2024/04/21 10:57:46;;;;;;;;;;;;;;;13.79;74.82;92324.00;6319791;22;19996;-73
2024/04/21 11:00:12;;;;;;;5.30;3.80;;;;;;;13.46;77.11;92313.72;6319054;22;20298;-73
2024/04/21 11:02:37;;;;;;;7.15;3.78;;;;;;;13.07;78.01;92299.28;6315222;22;20010;-74
2024/04/21 11:05:04;;;;;;;6.90;4.28;;;;;;;13.19;80.98;92335.22;6318202;22;20343;-73
2024/04/21 11:07:30;;;;;;;6.53;4.75;;;;;;;12.94;81.59;92332.19;6317485;22;20085;-74
2024/04/21 11:09:56;;;;;;;9.40;4.65;;;;;;;12.54;84.96;92323.84;6315779;22;20003;-73
2024/04/21 11:12:21;;;;;;;4.65;3.53;;;;;;;12.30;88.79;92325.94;6317644;22;19996;-72
2024/04/21 11:14:49;;;;;;;5.35;3.88;;;;;;;12.24;89.74;92327.69;6318288;22;19999;-72
2024/04/21 11:17:16;;;;;;;7.35;4.25;;;;;;;12.06;94.19;92317.69;6318931;22;20003;-72
2024/04/21 11:19:41;;;;;;;4.80;3.55;;;;;;;12.06;94.84;92310.75;6319049;22;20011;-72
2024/04/21 11:22:07;;;;;;;5.00;4.10;;;;;;;12.01;97.72;92295.22;6318669;22;19995;-73
2024/04/21 11:24:37;;;;;;;6.78;6.07;;;;;;;11.82;97.35;92258.72;6319303;22;20079;-72
2024/04/21 11:27:02;;;;;;;8.10;5.95;;;;;;;11.97;97.04;92281.28;6318541;22;20004;-72